createdAt,value
2019-05-23T03:46:34.803Z,76.50
2019-05-23T03:49:03.813Z,76.60
2019-05-23T03:51:31.898Z,76.20
2019-05-23T03:54:01.810Z,75.70
2019-05-23T03:56:30.267Z,76.30
2019-05-23T03:59:00.425Z,76.60
2019-05-23T04:01:46.126Z,76.90
2019-05-23T04:04:00.591Z,76.20
2019-05-23T04:06:29.052Z,76.00
2019-05-23T04:08:57.201Z,76.70
2019-05-23T04:11:25.464Z,75.90
2019-05-23T04:13:53.944Z,76.40
2019-05-23T04:16:22.620Z,76.20
2019-05-23T04:18:51.265Z,76.10
2019-05-23T04:21:24.534Z,75.90
2019-05-23T04:23:52.665Z,75.80
2019-05-23T04:26:20.975Z,75.60
2019-05-23T04:28:50.282Z,75.20
2019-05-23T04:31:18.525Z,75.20
2019-05-23T04:33:46.639Z,75.30
2019-05-23T04:36:14.795Z,75.20
2019-05-23T04:38:42.941Z,75.50
2019-05-23T04:41:11.499Z,75.80
2019-05-23T04:43:39.582Z,75.80
2019-05-23T04:46:08.096Z,75.80
2019-05-23T04:48:36.554Z,75.70
2019-05-23T04:51:05.804Z,76.10
2019-05-23T04:53:33.928Z,74.90
2019-05-23T04:56:02.924Z,75.50
2019-05-23T04:58:34.165Z,73.20
2019-05-23T05:01:02.567Z,71.50
2019-05-23T05:03:31.053Z,72.20
2019-05-23T05:05:59.269Z,71.50
2019-05-23T05:08:27.300Z,69.60
2019-05-23T05:10:55.279Z,70.40
2019-05-23T05:13:24.356Z,68.40
2019-05-23T05:15:52.559Z,69.20
2019-05-23T05:18:21.976Z,69.00
2019-05-23T05:20:51.204Z,68.70
2019-05-23T05:23:20.164Z,68.30
2019-05-23T05:25:48.175Z,69.70
2019-05-23T05:28:17.133Z,70.10
2019-05-23T05:30:47.180Z,70.20
2019-05-23T05:33:15.262Z,70.00
2019-05-23T05:35:43.402Z,69.50
2019-05-23T05:38:11.363Z,69.00
2019-05-23T05:40:42.371Z,68.80
2019-05-23T05:43:10.361Z,68.90
2019-05-23T05:45:39.395Z,69.60
2019-05-23T05:48:07.498Z,69.30
2019-05-23T05:50:35.644Z,69.10
2019-05-23T05:53:03.867Z,68.80
2019-05-23T05:55:31.842Z,67.70
2019-05-23T05:57:59.908Z,68.80
2019-05-23T06:00:29.609Z,67.50
2019-05-23T06:03:05.075Z,67.50
2019-05-23T06:05:49.123Z,65.60
2019-05-23T06:08:18.834Z,66.30
2019-05-23T06:10:46.970Z,66.40
2019-05-23T06:13:15.958Z,67.80
2019-05-23T06:15:45.142Z,68.00
2019-05-23T06:18:14.497Z,68.70
2019-05-23T06:20:44.908Z,68.30
2019-05-23T06:23:13.183Z,69.50
2019-05-23T06:25:42.065Z,69.10
2019-05-23T06:28:10.684Z,68.50
2019-05-23T06:30:39.339Z,68.30
2019-05-23T06:33:22.597Z,68.00
2019-05-23T06:35:39.131Z,69.10
2019-05-23T06:38:08.513Z,67.00
2019-05-23T06:40:37.729Z,66.40
2019-05-23T06:43:08.483Z,66.90
2019-05-23T06:45:38.710Z,66.40
2019-05-23T06:48:07.201Z,67.10
2019-05-23T06:50:37.287Z,65.50
2019-05-23T06:53:06.551Z,64.20
2019-05-23T06:55:34.775Z,62.90
2019-05-23T06:58:03.505Z,63.80
2019-05-23T07:00:32.616Z,63.50
2019-05-23T07:03:00.679Z,62.60
2019-05-23T07:05:30.319Z,62.40
2019-05-23T07:07:58.296Z,61.30
2019-05-23T07:10:28.647Z,62.00
2019-05-23T07:12:56.755Z,60.30
2019-05-23T07:15:26.847Z,60.80
2019-05-23T07:17:58.501Z,58.20
2019-05-23T07:20:26.597Z,56.80
2019-05-23T07:22:56.781Z,56.50
2019-05-23T07:25:25.104Z,55.20
2019-05-23T07:27:53.416Z,55.20
2019-05-23T07:30:26.487Z,53.70
2019-05-23T07:32:54.632Z,55.70
2019-05-23T07:35:23.636Z,51.50
2019-05-23T07:37:51.694Z,49.90
2019-05-23T07:40:21.494Z,53.10
2019-05-23T07:42:50.559Z,52.00
2019-05-23T07:45:20.414Z,54.30
2019-05-23T07:47:48.962Z,52.60
2019-05-23T07:50:17.956Z,52.40
2019-05-23T07:52:46.027Z,51.70
2019-05-23T07:55:18.872Z,51.60
2019-05-23T07:57:47.108Z,51.30
2019-05-23T08:00:20.273Z,50.70
2019-05-23T08:02:50.757Z,55.20
2019-05-23T08:05:19.220Z,52.30
2019-05-23T08:07:47.951Z,51.10
2019-05-23T08:10:32.540Z,50.90
2019-05-23T08:12:46.123Z,51.60
2019-05-23T08:15:14.912Z,51.10
2019-05-23T08:17:43.277Z,52.10
2019-05-23T08:20:11.836Z,50.20
2019-05-23T08:22:39.993Z,52.40
2019-05-23T08:25:08.123Z,52.90
2019-05-23T08:27:37.072Z,52.80
2019-05-23T08:30:06.193Z,51.80
2019-05-23T08:32:35.673Z,50.50
2019-05-23T08:35:05.657Z,50.30
2019-05-23T08:37:33.964Z,48.00
2019-05-23T08:40:02.770Z,50.00
2019-05-23T08:42:31.990Z,49.10
2019-05-23T08:45:01.772Z,49.70
2019-05-23T08:47:29.777Z,50.20
2019-05-23T08:49:58.323Z,53.10
2019-05-23T08:52:27.317Z,49.40
2019-05-23T08:54:56.846Z,49.00
2019-05-23T08:57:25.393Z,50.20
2019-05-23T08:59:53.889Z,49.60
2019-05-23T09:02:22.993Z,48.50
2019-05-23T09:05:04.241Z,49.10
2019-05-23T09:07:21.088Z,50.40
2019-05-23T09:09:49.147Z,49.50
2019-05-23T09:12:17.402Z,49.70
2019-05-23T09:14:45.795Z,50.20
2019-05-23T09:17:13.953Z,49.40
2019-05-23T09:19:42.088Z,49.40
2019-05-23T09:22:10.339Z,48.40
2019-05-23T09:24:38.392Z,48.20
2019-05-23T09:27:06.452Z,50.00
2019-05-23T09:29:34.967Z,49.50
2019-05-23T09:32:04.132Z,48.30
2019-05-23T09:34:32.217Z,48.40
2019-05-23T09:37:00.687Z,48.40
2019-05-23T09:39:28.939Z,48.60
2019-05-23T09:41:58.896Z,47.70
2019-05-23T09:44:27.987Z,47.80
2019-05-23T09:46:56.045Z,46.60
2019-05-23T09:49:24.920Z,48.00
2019-05-23T09:51:59.375Z,46.90
2019-05-23T09:54:24.681Z,46.40
2019-05-23T09:56:52.739Z,46.50
2019-05-23T09:59:20.738Z,47.30
2019-05-23T10:01:48.816Z,47.10
2019-05-23T10:04:16.871Z,46.70
2019-05-23T10:06:46.465Z,48.30
2019-05-23T10:09:15.717Z,49.90
2019-05-23T10:11:43.924Z,48.40
2019-05-23T10:14:13.701Z,48.10
2019-05-23T10:16:41.896Z,47.00
2019-05-23T10:19:09.931Z,47.60
2019-05-23T10:21:37.922Z,47.40
2019-05-23T10:24:05.923Z,46.40
2019-05-23T10:26:34.004Z,47.60
2019-05-23T10:29:02.059Z,47.50
2019-05-23T10:31:30.474Z,46.50
2019-05-23T10:33:59.551Z,47.40
2019-05-23T10:36:27.715Z,48.60
2019-05-23T10:38:56.827Z,47.80
2019-05-23T10:41:25.783Z,47.30
2019-05-23T10:43:55.002Z,48.20
2019-05-23T10:46:24.052Z,47.00
2019-05-23T10:48:52.294Z,45.00
2019-05-23T10:51:20.315Z,47.70
2019-05-23T10:53:48.448Z,49.10
2019-05-23T10:56:20.617Z,49.00
2019-05-23T10:58:48.553Z,46.30
2019-05-23T11:01:17.471Z,45.80
2019-05-23T11:03:46.009Z,44.40
2019-05-23T11:06:16.476Z,45.90
2019-05-23T11:08:44.365Z,44.40
2019-05-23T11:11:15.143Z,43.00
2019-05-23T11:13:43.705Z,44.60
2019-05-23T11:16:12.890Z,45.80
2019-05-23T11:18:42.069Z,44.20
2019-05-23T11:21:10.192Z,44.60
2019-05-23T11:23:39.940Z,46.80
2019-05-23T11:26:09.066Z,44.00
2019-05-23T11:28:37.118Z,43.30
2019-05-23T11:31:07.631Z,45.50
2019-05-23T11:33:36.722Z,45.60
2019-05-23T11:36:04.942Z,44.50
2019-05-23T11:38:32.973Z,44.00
2019-05-23T11:41:01.103Z,44.30
2019-05-23T11:43:30.110Z,44.20
2019-05-23T11:46:01.088Z,45.20
2019-05-23T11:48:29.320Z,43.80
2019-05-23T11:50:57.321Z,44.50
2019-05-23T11:53:25.335Z,45.10
2019-05-23T11:55:54.374Z,44.00
2019-05-23T11:58:23.068Z,43.90
2019-05-23T12:00:54.540Z,39.40
2019-05-23T12:03:23.667Z,41.60
2019-05-23T12:05:51.735Z,42.00
2019-05-23T12:08:20.811Z,41.80
2019-05-23T12:10:49.924Z,41.20
2019-05-23T12:13:19.099Z,42.90
2019-05-23T12:15:47.790Z,43.70
2019-05-23T12:18:15.774Z,42.10
2019-05-23T12:20:44.708Z,41.90
2019-05-23T12:23:12.743Z,39.80
2019-05-23T12:25:41.001Z,39.80
2019-05-23T12:28:11.660Z,42.10
2019-05-23T12:30:39.823Z,40.70
2019-05-23T12:33:08.867Z,41.90
2019-05-23T12:35:36.993Z,42.20
2019-05-23T12:38:05.156Z,41.90
2019-05-23T12:40:34.311Z,43.10
2019-05-23T12:43:02.372Z,41.90
2019-05-23T12:45:30.408Z,42.50
2019-05-23T12:48:01.043Z,41.80
2019-05-23T12:50:45.503Z,41.80
2019-05-23T12:53:15.278Z,39.40
2019-05-23T12:55:43.368Z,42.20
2019-05-23T12:58:11.442Z,45.00
2019-05-23T13:00:41.138Z,38.20
2019-05-23T13:03:10.772Z,36.40
2019-05-23T13:05:38.865Z,37.40
2019-05-23T13:08:07.229Z,38.90
2019-05-23T13:10:37.255Z,36.60
2019-05-23T13:13:05.309Z,37.50
2019-05-23T13:15:34.303Z,38.40
2019-05-23T13:18:02.372Z,40.90
2019-05-23T13:20:34.535Z,39.60
2019-05-23T13:23:02.653Z,37.90
2019-05-23T13:25:30.712Z,39.50
2019-05-23T13:27:59.053Z,39.50
2019-05-23T13:30:28.144Z,38.60
2019-05-23T13:32:56.149Z,38.50
2019-05-23T13:35:25.108Z,38.70
2019-05-23T13:37:54.403Z,40.40
2019-05-23T13:40:22.698Z,40.10
2019-05-23T13:42:50.739Z,40.40
2019-05-23T13:45:19.404Z,40.30
2019-05-23T13:47:47.852Z,40.40
2019-05-23T13:50:16.211Z,40.50
2019-05-23T13:52:44.571Z,39.80
2019-05-23T13:55:13.429Z,40.50
2019-05-23T13:57:41.430Z,40.40
2019-05-23T14:00:10.332Z,41.80
2019-05-23T14:02:45.325Z,40.60
2019-05-23T14:05:13.379Z,42.00
2019-05-23T14:07:42.505Z,39.30
2019-05-23T14:10:11.750Z,41.00
2019-05-23T14:12:39.899Z,40.20
2019-05-23T14:15:10.624Z,40.70
2019-05-23T14:17:42.384Z,40.70
2019-05-23T14:20:10.557Z,39.50
2019-05-23T14:22:40.185Z,40.20
2019-05-23T14:25:09.353Z,40.10
2019-05-23T14:27:41.503Z,43.00
2019-05-23T14:30:14.043Z,41.70
2019-05-23T14:32:44.993Z,41.80
2019-05-23T14:35:14.975Z,41.80
2019-05-23T14:37:51.466Z,41.30
2019-05-23T14:40:19.521Z,40.60
2019-05-23T14:42:52.898Z,40.60
2019-05-23T14:45:36.387Z,39.40
2019-05-23T14:48:13.253Z,39.80
2019-05-23T14:50:59.003Z,40.80
2019-05-23T14:53:29.670Z,39.40
2019-05-23T14:55:57.810Z,36.50
2019-05-23T14:58:25.926Z,37.80
2019-05-23T15:00:54.947Z,37.60
2019-05-23T15:03:23.113Z,37.90
2019-05-23T15:05:52.079Z,39.00
2019-05-23T15:08:20.180Z,38.50
2019-05-23T15:10:48.309Z,39.10
2019-05-23T15:13:18.996Z,37.40
2019-05-23T15:16:16.731Z,39.40
2019-05-23T15:18:48.611Z,36.00
2019-05-23T15:21:16.644Z,36.20
2019-05-23T15:23:44.717Z,37.90
2019-05-23T15:26:22.514Z,37.50
2019-05-23T15:28:42.529Z,36.80
2019-05-23T15:31:10.783Z,36.10
2019-05-23T15:33:38.920Z,36.40
2019-05-23T15:36:07.017Z,37.20
2019-05-23T15:38:35.184Z,38.10
2019-05-23T15:41:03.400Z,38.10
2019-05-23T15:43:31.403Z,38.80
2019-05-23T15:45:59.459Z,38.60
2019-05-23T15:48:27.522Z,38.40
2019-05-23T15:50:55.517Z,37.60
2019-05-23T15:53:30.931Z,36.80
2019-05-23T15:56:16.494Z,38.20
2019-05-23T15:58:40.905Z,38.00
2019-05-23T16:01:13.323Z,38.40
2019-05-23T16:03:42.977Z,38.30
2019-05-23T16:06:18.955Z,39.60
2019-05-23T16:08:46.951Z,39.70
2019-05-23T16:11:17.442Z,38.20
2019-05-23T16:13:44.935Z,36.70
2019-05-23T16:16:12.993Z,36.10
2019-05-23T16:18:41.108Z,37.20
2019-05-23T16:21:09.653Z,38.40
2019-05-23T16:23:37.666Z,39.30
2019-05-23T16:26:05.701Z,36.20
2019-05-23T16:28:33.711Z,36.50
2019-05-23T16:31:01.829Z,35.60
2019-05-23T16:33:29.825Z,35.00
2019-05-23T16:35:57.993Z,33.50
2019-05-23T16:38:26.079Z,34.50
2019-05-23T16:40:54.061Z,35.40
2019-05-23T16:43:22.138Z,34.60
2019-05-23T16:45:50.124Z,35.80
2019-05-23T16:48:18.218Z,37.60
2019-05-23T16:50:46.287Z,40.80
2019-05-23T16:53:14.515Z,37.10
2019-05-23T16:55:44.210Z,37.20
2019-05-23T16:58:22.908Z,36.40
2019-05-23T17:00:58.480Z,37.50
2019-05-23T17:03:40.324Z,36.90
2019-05-23T17:06:26.125Z,37.90
2019-05-23T17:09:01.668Z,38.20
2019-05-23T17:11:46.303Z,35.20
2019-05-23T17:14:32.165Z,38.20
2019-05-23T17:17:11.135Z,36.30
2019-05-23T17:19:40.887Z,34.80
2019-05-23T17:22:30.779Z,34.70
2019-05-23T17:25:03.293Z,37.20
2019-05-23T17:27:33.184Z,37.40
2019-05-23T17:30:08.357Z,37.30
2019-05-23T17:32:35.485Z,36.30
2019-05-23T17:35:04.180Z,37.60
2019-05-23T17:37:32.908Z,38.70
2019-05-23T17:40:01.067Z,39.80
2019-05-23T17:42:29.265Z,37.90
2019-05-23T17:44:57.379Z,38.80
2019-05-23T17:47:25.748Z,35.30
2019-05-23T17:49:53.834Z,38.60
2019-05-23T17:52:23.410Z,37.70
2019-05-23T17:54:51.559Z,36.20
2019-05-23T17:57:19.726Z,37.60
2019-05-23T17:59:50.042Z,37.90
2019-05-23T18:02:19.202Z,38.50
2019-05-23T18:04:47.262Z,38.00
2019-05-23T18:07:16.315Z,38.70
2019-05-23T18:09:44.837Z,37.50
2019-05-23T18:12:12.983Z,39.30
2019-05-23T18:14:41.410Z,37.90
2019-05-23T18:17:09.398Z,37.30
2019-05-23T18:19:38.571Z,38.60
2019-05-23T18:22:08.354Z,38.20
2019-05-23T18:24:36.765Z,39.30
2019-05-23T18:27:06.180Z,39.60
2019-05-23T18:29:34.541Z,39.00
2019-05-23T18:32:04.186Z,40.30
2019-05-23T18:34:32.420Z,41.00
2019-05-23T18:37:00.980Z,41.90
2019-05-23T18:39:29.949Z,42.80
2019-05-23T18:41:57.943Z,42.90
2019-05-23T18:44:26.438Z,42.70
2019-05-23T18:46:56.595Z,43.00
2019-05-23T18:49:25.613Z,41.90
2019-05-23T18:51:53.689Z,45.20
2019-05-23T18:54:21.689Z,44.30
2019-05-23T18:56:49.674Z,43.40
2019-05-23T18:59:17.933Z,43.60
2019-05-23T19:01:46.257Z,44.70
2019-05-23T19:04:14.715Z,46.60
2019-05-23T19:06:43.125Z,44.60
2019-05-23T19:09:12.881Z,45.30
2019-05-23T19:11:43.809Z,46.00
2019-05-23T19:14:12.086Z,47.50
2019-05-23T19:16:40.288Z,47.30
2019-05-23T19:19:08.604Z,48.00
2019-05-23T19:21:37.458Z,47.90
2019-05-23T19:24:06.162Z,46.50
2019-05-23T19:26:34.225Z,47.20
2019-05-23T19:29:02.311Z,48.50
2019-05-23T19:31:30.333Z,48.90
2019-05-23T19:33:58.434Z,48.60
2019-05-23T19:36:26.862Z,47.60
2019-05-23T19:38:54.932Z,48.90
2019-05-23T19:41:36.012Z,49.40
2019-05-23T19:43:52.661Z,49.00
2019-05-23T19:46:20.645Z,49.70
2019-05-23T19:48:49.271Z,49.30
2019-05-23T19:51:17.918Z,49.60
2019-05-23T19:53:46.461Z,50.80
2019-05-23T19:56:14.452Z,51.60
2019-05-23T19:58:42.638Z,51.10
2019-05-23T20:01:11.165Z,50.80
2019-05-23T20:03:39.144Z,51.00
2019-05-23T20:06:08.193Z,52.20
2019-05-23T20:08:36.199Z,51.70
2019-05-23T20:11:04.930Z,52.70
2019-05-23T20:13:32.911Z,54.00
2019-05-23T20:16:01.108Z,54.00
2019-05-23T20:18:29.529Z,53.70
2019-05-23T20:20:57.877Z,54.40
2019-05-23T20:23:26.407Z,54.60
2019-05-23T20:25:57.059Z,54.50
2019-05-23T20:28:25.641Z,55.80
2019-05-23T20:30:53.863Z,56.30
2019-05-23T20:33:22.471Z,55.40
2019-05-23T20:35:50.696Z,55.90
2019-05-23T20:38:18.864Z,55.90
2019-05-23T20:40:46.892Z,56.50
2019-05-23T20:43:15.023Z,57.70
2019-05-23T20:45:43.082Z,58.20
2019-05-23T20:48:11.236Z,58.60
2019-05-23T20:50:39.269Z,58.90
2019-05-23T20:53:07.781Z,58.80
2019-05-23T20:55:35.989Z,58.30
2019-05-23T20:58:06.146Z,58.70
2019-05-23T21:00:35.892Z,59.70
2019-05-23T21:03:04.455Z,60.20
2019-05-23T21:05:32.563Z,60.90
2019-05-23T21:08:00.598Z,61.00
2019-05-23T21:10:39.094Z,61.60
2019-05-23T21:13:07.282Z,61.60
2019-05-23T21:15:35.408Z,62.70
2019-05-23T21:18:03.487Z,62.90
2019-05-23T21:20:31.574Z,62.70
2019-05-23T21:22:59.584Z,63.40
2019-05-23T21:25:27.704Z,62.80
2019-05-23T21:27:55.774Z,63.60
2019-05-23T21:30:23.761Z,64.50
2019-05-23T21:32:51.817Z,62.40
2019-05-23T21:35:19.794Z,62.90
2019-05-23T21:37:47.786Z,62.20
2019-05-23T21:40:35.497Z,63.20
2019-05-23T21:43:04.067Z,63.30
2019-05-23T21:45:32.127Z,63.70
2019-05-23T21:48:00.233Z,63.30
2019-05-23T21:50:28.226Z,63.40
2019-05-23T21:52:56.345Z,63.30
2019-05-23T21:55:32.322Z,63.00
2019-05-23T21:58:00.329Z,64.00
2019-05-23T22:00:54.974Z,63.60
2019-05-23T22:03:23.022Z,64.10
2019-05-23T22:05:51.130Z,65.30
2019-05-23T22:08:19.160Z,65.80
2019-05-23T22:10:47.687Z,65.80
2019-05-23T22:13:15.708Z,66.90
2019-05-23T22:15:43.778Z,64.90
2019-05-23T22:18:11.841Z,66.20
2019-05-23T22:20:39.822Z,66.70
2019-05-23T22:23:07.882Z,65.80
2019-05-23T22:25:35.940Z,66.10
2019-05-23T22:28:03.933Z,66.00
2019-05-23T22:30:32.146Z,65.50
2019-05-23T22:33:00.272Z,66.80
2019-05-23T22:35:28.464Z,67.80
2019-05-23T22:37:56.525Z,68.00
2019-05-23T22:40:24.580Z,67.80
2019-05-23T22:42:53.633Z,68.10
2019-05-23T22:45:23.274Z,68.30
2019-05-23T22:47:51.253Z,68.40
2019-05-23T22:50:19.236Z,68.50
2019-05-23T22:52:47.290Z,68.50
2019-05-23T22:55:15.272Z,68.80
2019-05-23T22:57:43.274Z,69.30
